SUN1DN LXGB-EGGD
Flight info
| Callsign | SUN1DN |
|---|---|
| Flight time | 2h 36m |
| Altitude | 36000 |
| Route | PIMOS M985 MGA DCT BLN DCT MORAL DCT BEXID DCT VTB DCT SIE DCT XERMA DCT ARLUN DCT BUGIX DCT UNGAS DCT DELOG DCT NOVAN DCT RUSIB DCT NOZHU DCT SHIRI DCT TOJAQ |
| Aircraft | B738/M-SDE2E3FGHIRWXY/LB1 |
Departure
| Time | 2026-05-04 21:48 |
|---|---|
| Airport | Gibraltar Airport (LXGB) |
Arrival
| Time | 2026-05-05 00:24 |
|---|---|
| Airport | Bristol Airport (EGGD) |
| Time | Latitude | Longitude | Altitude | Speed | Heading |
|---|---|---|---|---|---|
| 2026-05-04 21:25 | 36.15300 | -5.34584 | 17 ft | 0 kts | 356° |
| 2026-05-04 21:42 | 36.15297 | -5.34584 | 17 ft | 1 kts | 356° |
| 2026-05-04 21:42 | 36.15280 | -5.34583 | 19 ft | 3 kts | 358° |
| 2026-05-04 21:42 | 36.15260 | -5.34582 | 19 ft | 3 kts | 4° |
| 2026-05-04 21:42 | 36.15241 | -5.34587 | 19 ft | 3 kts | 31° |
| 2026-05-04 21:43 | 36.15229 | -5.34601 | 19 ft | 3 kts | 76° |
| 2026-05-04 21:43 | 36.15227 | -5.34614 | 21 ft | 2 kts | 87° |
| 2026-05-04 21:43 | 36.15226 | -5.34634 | 21 ft | 1 kts | 87° |
| 2026-05-04 21:43 | 36.15226 | -5.34636 | 21 ft | 0 kts | 87° |
| 2026-05-04 21:45 | 36.15228 | -5.34586 | 19 ft | 14 kts | 87° |
| 2026-05-04 21:45 | 36.15233 | -5.34458 | 17 ft | 15 kts | 87° |
| 2026-05-04 21:46 | 36.15237 | -5.34330 | 17 ft | 13 kts | 88° |
| 2026-05-04 21:46 | 36.15220 | -5.34238 | 17 ft | 10 kts | 158° |
| 2026-05-04 21:46 | 36.15152 | -5.34225 | 14 ft | 11 kts | 151° |
| 2026-05-04 21:46 | 36.15147 | -5.34139 | 15 ft | 10 kts | 76° |
| 2026-05-04 21:47 | 36.15179 | -5.34060 | 15 ft | 10 kts | 83° |
| 2026-05-04 21:47 | 36.15151 | -5.34030 | 15 ft | 2 kts | 245° |
| 2026-05-04 21:47 | 36.15151 | -5.34038 | 15 ft | 0 kts | 266° |
| 2026-05-04 21:47 | 36.15150 | -5.34054 | 15 ft | 17 kts | 266° |
| 2026-05-04 21:48 | 36.15131 | -5.34573 | 16 ft | 101 kts | 268° |
| 2026-05-04 21:48 | 36.15085 | -5.35749 | 37 ft | 169 kts | 265° |
| 2026-05-04 21:48 | 36.14961 | -5.37277 | 756 ft | 186 kts | 253° |
| 2026-05-04 21:48 | 36.14126 | -5.38500 | 1650 ft | 189 kts | 214° |
| 2026-05-04 21:49 | 36.12816 | -5.38850 | 2046 ft | 192 kts | 177° |
| 2026-05-04 21:49 | 36.11624 | -5.38255 | 2534 ft | 194 kts | 141° |
| 2026-05-04 21:49 | 36.10905 | -5.36886 | 2854 ft | 194 kts | 106° |
| 2026-05-04 21:49 | 36.10777 | -5.35223 | 2957 ft | 197 kts | 89° |
| 2026-05-04 21:50 | 36.10758 | -5.33515 | 3061 ft | 201 kts | 90° |
| 2026-05-04 21:50 | 36.10709 | -5.31693 | 3336 ft | 222 kts | 90° |
| 2026-05-04 21:50 | 36.10658 | -5.29674 | 3507 ft | 246 kts | 85° |
| 2026-05-04 21:50 | 36.11176 | -5.27647 | 3836 ft | 256 kts | 50° |
| 2026-05-04 21:51 | 36.12452 | -5.26031 | 4310 ft | 269 kts | 40° |
| 2026-05-04 21:51 | 36.13849 | -5.24447 | 5079 ft | 272 kts | 39° |
| 2026-05-04 21:51 | 36.14765 | -5.23394 | 5668 ft | 273 kts | 40° |
| 2026-05-04 21:51 | 36.16171 | -5.21743 | 6340 ft | 281 kts | 42° |
| 2026-05-04 21:52 | 36.17594 | -5.20029 | 6998 ft | 289 kts | 42° |
| 2026-05-04 21:52 | 36.19530 | -5.17644 | 7911 ft | 297 kts | 43° |
| 2026-05-04 21:52 | 36.20491 | -5.16442 | 8438 ft | 298 kts | 43° |
| 2026-05-04 21:52 | 36.21957 | -5.14597 | 9145 ft | 304 kts | 43° |
| 2026-05-04 21:53 | 36.23453 | -5.12698 | 9804 ft | 311 kts | 43° |
| 2026-05-04 21:53 | 36.24972 | -5.10758 | 10404 ft | 319 kts | 43° |
| 2026-05-04 21:53 | 36.26573 | -5.08709 | 10582 ft | 342 kts | 43° |
| 2026-05-04 21:53 | 36.28279 | -5.06516 | 10761 ft | 364 kts | 44° |
| 2026-05-04 21:54 | 36.30069 | -5.04206 | 11138 ft | 377 kts | 44° |
| 2026-05-04 21:54 | 36.31895 | -5.01841 | 11752 ft | 381 kts | 44° |
| 2026-05-04 21:54 | 36.33735 | -4.99452 | 12439 ft | 384 kts | 44° |
| 2026-05-04 21:54 | 36.35585 | -4.97048 | 13116 ft | 387 kts | 44° |
| 2026-05-04 21:55 | 36.37456 | -4.94615 | 13750 ft | 392 kts | 43° |
| 2026-05-04 21:55 | 36.39350 | -4.92153 | 14276 ft | 398 kts | 43° |
| 2026-05-04 21:55 | 36.41270 | -4.89656 | 14858 ft | 402 kts | 44° |
| 2026-05-04 21:55 | 36.43209 | -4.87131 | 15411 ft | 406 kts | 44° |
| 2026-05-04 21:56 | 36.45168 | -4.84579 | 16021 ft | 409 kts | 44° |
| 2026-05-04 21:56 | 36.47134 | -4.82015 | 16623 ft | 412 kts | 44° |
| 2026-05-04 21:56 | 36.49119 | -4.79423 | 17173 ft | 416 kts | 44° |
| 2026-05-04 21:56 | 36.51123 | -4.76807 | 17726 ft | 420 kts | 44° |
| 2026-05-04 21:57 | 36.53149 | -4.74159 | 18297 ft | 423 kts | 44° |
| 2026-05-04 21:57 | 36.55181 | -4.71500 | 18778 ft | 427 kts | 44° |
| 2026-05-04 21:57 | 36.57230 | -4.68818 | 19269 ft | 429 kts | 44° |
| 2026-05-04 21:57 | 36.59295 | -4.66112 | 19794 ft | 432 kts | 44° |
| 2026-05-04 21:58 | 36.61371 | -4.63389 | 20271 ft | 435 kts | 43° |
| 2026-05-04 21:58 | 36.63461 | -4.60647 | 20744 ft | 438 kts | 43° |
| 2026-05-04 21:58 | 36.65565 | -4.57883 | 21232 ft | 441 kts | 43° |
| 2026-05-04 21:58 | 36.67677 | -4.55106 | 21692 ft | 444 kts | 43° |
| 2026-05-04 21:59 | 36.69809 | -4.52300 | 22125 ft | 448 kts | 43° |
| 2026-05-04 21:59 | 36.71957 | -4.49471 | 22586 ft | 450 kts | 43° |
| 2026-05-04 21:59 | 36.74115 | -4.46626 | 23030 ft | 453 kts | 43° |
| 2026-05-04 21:59 | 36.76286 | -4.43762 | 23468 ft | 456 kts | 43° |
| 2026-05-04 22:00 | 36.78466 | -4.40883 | 23831 ft | 459 kts | 43° |
| 2026-05-04 22:00 | 36.80785 | -4.38147 | 24150 ft | 458 kts | 34° |
| 2026-05-04 22:00 | 36.83396 | -4.35897 | 24500 ft | 455 kts | 25° |
| 2026-05-04 22:00 | 36.86232 | -4.34175 | 24838 ft | 453 kts | 18° |
| 2026-05-04 22:01 | 36.89136 | -4.32613 | 25151 ft | 455 kts | 18° |
| 2026-05-04 22:01 | 36.92062 | -4.31066 | 25519 ft | 458 kts | 17° |
| 2026-05-04 22:01 | 36.95002 | -4.29506 | 25816 ft | 461 kts | 18° |
| 2026-05-04 22:01 | 36.97966 | -4.27919 | 26130 ft | 464 kts | 18° |
| 2026-05-04 22:02 | 37.00935 | -4.26313 | 26462 ft | 466 kts | 18° |
| 2026-05-04 22:02 | 37.03911 | -4.24689 | 26778 ft | 469 kts | 18° |
| 2026-05-04 22:02 | 37.06914 | -4.23042 | 27096 ft | 472 kts | 18° |
| 2026-05-04 22:02 | 37.09928 | -4.21384 | 27413 ft | 474 kts | 18° |
| 2026-05-04 22:03 | 37.12954 | -4.19717 | 27720 ft | 477 kts | 18° |
| 2026-05-04 22:03 | 37.15995 | -4.18040 | 28025 ft | 479 kts | 18° |
| 2026-05-04 22:03 | 37.19050 | -4.16355 | 28336 ft | 481 kts | 18° |
| 2026-05-04 22:03 | 37.22085 | -4.14679 | 28615 ft | 483 kts | 18° |
| 2026-05-04 22:04 | 37.25212 | -4.12952 | 28886 ft | 486 kts | 18° |
| 2026-05-04 22:04 | 37.28270 | -4.11261 | 29128 ft | 488 kts | 18° |
| 2026-05-04 22:04 | 37.31419 | -4.09519 | 29377 ft | 490 kts | 18° |
| 2026-05-04 22:04 | 37.34506 | -4.07809 | 29623 ft | 492 kts | 18° |
| 2026-05-04 22:05 | 37.37683 | -4.06048 | 29879 ft | 494 kts | 18° |
| 2026-05-04 22:05 | 37.40829 | -4.04303 | 30158 ft | 496 kts | 18° |
| 2026-05-04 22:05 | 37.43996 | -4.02544 | 30341 ft | 498 kts | 17° |
| 2026-05-04 22:05 | 37.47168 | -4.00781 | 30548 ft | 500 kts | 18° |
| 2026-05-04 22:06 | 37.50348 | -3.99011 | 30776 ft | 500 kts | 18° |
| 2026-05-04 22:06 | 37.53534 | -3.97236 | 31014 ft | 500 kts | 18° |
| 2026-05-04 22:06 | 37.56703 | -3.95467 | 31304 ft | 499 kts | 18° |
| 2026-05-04 22:06 | 37.59875 | -3.93696 | 31580 ft | 498 kts | 18° |
| 2026-05-04 22:07 | 37.63043 | -3.91926 | 31839 ft | 498 kts | 18° |
| 2026-05-04 22:07 | 37.66210 | -3.90156 | 32140 ft | 497 kts | 17° |
| 2026-05-04 22:07 | 37.69367 | -3.88389 | 32462 ft | 495 kts | 17° |
| 2026-05-04 22:07 | 37.72472 | -3.86650 | 32743 ft | 494 kts | 17° |
| 2026-05-04 22:08 | 37.75615 | -3.84888 | 32994 ft | 495 kts | 17° |
| 2026-05-04 22:08 | 37.78762 | -3.83124 | 33225 ft | 494 kts | 17° |
| 2026-05-04 22:08 | 37.81905 | -3.81359 | 33475 ft | 494 kts | 17° |
| 2026-05-04 22:08 | 37.85042 | -3.79597 | 33641 ft | 495 kts | 17° |
| 2026-05-04 22:09 | 37.88196 | -3.77823 | 33841 ft | 495 kts | 17° |
| 2026-05-04 22:09 | 37.91341 | -3.76051 | 34135 ft | 494 kts | 17° |
| 2026-05-04 22:09 | 37.94478 | -3.74282 | 34370 ft | 493 kts | 17° |
| 2026-05-04 22:09 | 37.97607 | -3.72517 | 34549 ft | 493 kts | 17° |
| 2026-05-04 22:10 | 38.00752 | -3.70741 | 34709 ft | 494 kts | 17° |
| 2026-05-04 22:10 | 38.03889 | -3.68967 | 34887 ft | 494 kts | 17° |
| 2026-05-04 22:10 | 38.07026 | -3.67192 | 35089 ft | 494 kts | 17° |
| 2026-05-04 22:10 | 38.10149 | -3.65423 | 35280 ft | 494 kts | 17° |
| 2026-05-04 22:11 | 38.13312 | -3.63688 | 35449 ft | 490 kts | 12° |
| 2026-05-04 22:11 | 38.16542 | -3.62462 | 35648 ft | 480 kts | 3° |
| 2026-05-04 22:11 | 38.19809 | -3.61882 | 35835 ft | 469 kts | 355° |
| 2026-05-04 22:11 | 38.23059 | -3.61595 | 36006 ft | 468 kts | 355° |
| 2026-05-04 22:12 | 38.26316 | -3.61333 | 36008 ft | 471 kts | 355° |
| 2026-05-04 22:12 | 38.32854 | -3.60778 | 36023 ft | 470 kts | 355° |
| 2026-05-04 22:13 | 38.39368 | -3.60165 | 36015 ft | 468 kts | 355° |
| 2026-05-04 22:13 | 38.45849 | -3.59531 | 36013 ft | 467 kts | 355° |
| 2026-05-04 22:14 | 38.52316 | -3.58896 | 36031 ft | 465 kts | 355° |
| 2026-05-04 22:14 | 38.58769 | -3.58264 | 36021 ft | 465 kts | 355° |
| 2026-05-04 22:15 | 38.65221 | -3.57632 | 36032 ft | 466 kts | 355° |
| 2026-05-04 22:15 | 38.71688 | -3.56997 | 36029 ft | 466 kts | 355° |
| 2026-05-04 22:16 | 38.78165 | -3.56360 | 36030 ft | 467 kts | 355° |
| 2026-05-04 22:16 | 38.84657 | -3.55720 | 36072 ft | 469 kts | 355° |
| 2026-05-04 22:17 | 38.91139 | -3.55079 | 36036 ft | 471 kts | 355° |
| 2026-05-04 22:17 | 38.97677 | -3.54431 | 36020 ft | 472 kts | 355° |
| 2026-05-04 22:18 | 39.04260 | -3.53779 | 36028 ft | 472 kts | 355° |
| 2026-05-04 22:18 | 39.10773 | -3.53138 | 36026 ft | 473 kts | 355° |
| 2026-05-04 22:19 | 39.17327 | -3.52491 | 36040 ft | 471 kts | 355° |
| 2026-05-04 22:19 | 39.23874 | -3.51841 | 36039 ft | 473 kts | 355° |
| 2026-05-04 22:20 | 39.30442 | -3.51190 | 36067 ft | 473 kts | 355° |
| 2026-05-04 22:20 | 39.37003 | -3.50537 | 36023 ft | 473 kts | 355° |
| 2026-05-04 22:21 | 39.43567 | -3.49883 | 36019 ft | 473 kts | 355° |
| 2026-05-04 22:21 | 39.50127 | -3.49228 | 36015 ft | 473 kts | 355° |
| 2026-05-04 22:22 | 39.56688 | -3.48572 | 36016 ft | 474 kts | 355° |
| 2026-05-04 22:22 | 39.63261 | -3.47909 | 36015 ft | 474 kts | 355° |
| 2026-05-04 22:23 | 39.69832 | -3.47241 | 36007 ft | 474 kts | 355° |
| 2026-05-04 22:23 | 39.76407 | -3.46573 | 36036 ft | 474 kts | 356° |
| 2026-05-04 22:24 | 39.82922 | -3.46664 | 36018 ft | 464 kts | 347° |
| 2026-05-04 22:24 | 39.89344 | -3.47407 | 36006 ft | 463 kts | 346° |
| 2026-05-04 22:25 | 39.95771 | -3.48156 | 36002 ft | 464 kts | 346° |
| 2026-05-04 22:25 | 40.02222 | -3.48845 | 36004 ft | 466 kts | 347° |
| 2026-05-04 22:26 | 40.08689 | -3.49503 | 36012 ft | 467 kts | 347° |
| 2026-05-04 22:26 | 40.15173 | -3.50159 | 36008 ft | 468 kts | 347° |
| 2026-05-04 22:27 | 40.21629 | -3.50814 | 36024 ft | 468 kts | 347° |
| 2026-05-04 22:27 | 40.28117 | -3.51477 | 36024 ft | 469 kts | 347° |
| 2026-05-04 22:28 | 40.34560 | -3.52136 | 36022 ft | 469 kts | 347° |
| 2026-05-04 22:28 | 40.41067 | -3.52803 | 35988 ft | 469 kts | 347° |
| 2026-05-04 22:29 | 40.47587 | -3.53474 | 35999 ft | 470 kts | 347° |
| 2026-05-04 22:29 | 40.54114 | -3.54145 | 36000 ft | 471 kts | 347° |
| 2026-05-04 22:30 | 40.60648 | -3.54820 | 35992 ft | 471 kts | 347° |
| 2026-05-04 22:30 | 40.67187 | -3.55495 | 36000 ft | 471 kts | 347° |
| 2026-05-04 22:31 | 40.73717 | -3.56171 | 36005 ft | 471 kts | 347° |
| 2026-05-04 22:31 | 40.80240 | -3.56848 | 36014 ft | 470 kts | 347° |
| 2026-05-04 22:32 | 40.86764 | -3.57527 | 36042 ft | 470 kts | 347° |
| 2026-05-04 22:32 | 40.93295 | -3.58207 | 36023 ft | 471 kts | 347° |
| 2026-05-04 22:33 | 40.99824 | -3.58889 | 36019 ft | 471 kts | 347° |
| 2026-05-04 22:33 | 41.06350 | -3.59571 | 36033 ft | 470 kts | 347° |
| 2026-05-04 22:34 | 41.12885 | -3.60258 | 36037 ft | 472 kts | 348° |
| 2026-05-04 22:34 | 41.19467 | -3.60738 | 36039 ft | 476 kts | 352° |
| 2026-05-04 22:35 | 41.26101 | -3.60843 | 36039 ft | 477 kts | 352° |
| 2026-05-04 22:35 | 41.32753 | -3.60951 | 36047 ft | 478 kts | 352° |
| 2026-05-04 22:36 | 41.39414 | -3.61113 | 36035 ft | 479 kts | 352° |
| 2026-05-04 22:36 | 41.46079 | -3.61289 | 36035 ft | 479 kts | 352° |
| 2026-05-04 22:37 | 41.51624 | -3.61426 | 36067 ft | 480 kts | 353° |
| 2026-05-04 22:37 | 41.58313 | -3.61448 | 36042 ft | 482 kts | 354° |
| 2026-05-04 22:38 | 41.66108 | -3.61410 | 36033 ft | 482 kts | 354° |
| 2026-05-04 22:38 | 41.72809 | -3.61398 | 36055 ft | 482 kts | 354° |
| 2026-05-04 22:39 | 41.78425 | -3.61398 | 36043 ft | 482 kts | 354° |
| 2026-05-04 22:39 | 41.85132 | -3.61400 | 36034 ft | 482 kts | 354° |
| 2026-05-04 22:40 | 41.91832 | -3.61400 | 36035 ft | 482 kts | 354° |
| 2026-05-04 22:40 | 41.98499 | -3.61400 | 36041 ft | 482 kts | 354° |
| 2026-05-04 22:41 | 42.05199 | -3.61465 | 36033 ft | 481 kts | 353° |
| 2026-05-04 22:41 | 42.11866 | -3.61916 | 36037 ft | 479 kts | 351° |
| 2026-05-04 22:42 | 42.18530 | -3.62409 | 36045 ft | 480 kts | 352° |
| 2026-05-04 22:42 | 42.25243 | -3.62843 | 36022 ft | 480 kts | 352° |
| 2026-05-04 22:43 | 42.31867 | -3.63253 | 36017 ft | 480 kts | 352° |
| 2026-05-04 22:43 | 42.38517 | -3.63852 | 36025 ft | 477 kts | 348° |
| 2026-05-04 22:44 | 42.45058 | -3.65203 | 36026 ft | 475 kts | 346° |
| 2026-05-04 22:44 | 42.51593 | -3.66642 | 36024 ft | 476 kts | 346° |
| 2026-05-04 22:45 | 42.58143 | -3.67984 | 36048 ft | 476 kts | 347° |
| 2026-05-04 22:45 | 42.67981 | -3.69954 | 36055 ft | 477 kts | 347° |
| 2026-05-04 22:46 | 42.74564 | -3.71151 | 36063 ft | 477 kts | 349° |
| 2026-05-04 22:46 | 42.81162 | -3.72243 | 36057 ft | 478 kts | 349° |
| 2026-05-04 22:47 | 42.87761 | -3.73344 | 36059 ft | 478 kts | 349° |
| 2026-05-04 22:47 | 42.94361 | -3.74466 | 36067 ft | 478 kts | 348° |
| 2026-05-04 22:48 | 43.00964 | -3.75601 | 36065 ft | 478 kts | 349° |
| 2026-05-04 22:48 | 43.07572 | -3.76740 | 36067 ft | 479 kts | 349° |
| 2026-05-04 22:49 | 43.14182 | -3.77881 | 36062 ft | 479 kts | 349° |
| 2026-05-04 22:49 | 43.20793 | -3.79025 | 36076 ft | 479 kts | 349° |
| 2026-05-04 22:50 | 43.27410 | -3.80171 | 36074 ft | 479 kts | 349° |
| 2026-05-04 22:50 | 43.34025 | -3.81320 | 36072 ft | 479 kts | 349° |
| 2026-05-04 22:51 | 43.40630 | -3.82469 | 36089 ft | 478 kts | 349° |
| 2026-05-04 22:51 | 43.47232 | -3.83620 | 36075 ft | 478 kts | 349° |
| 2026-05-04 22:52 | 43.53777 | -3.84765 | 36072 ft | 477 kts | 349° |
| 2026-05-04 22:52 | 43.60356 | -3.85918 | 36044 ft | 476 kts | 350° |
| 2026-05-04 22:53 | 43.66702 | -3.87032 | 36041 ft | 476 kts | 350° |
| 2026-05-04 22:53 | 43.73276 | -3.88189 | 36040 ft | 476 kts | 350° |
| 2026-05-04 22:54 | 43.79838 | -3.89346 | 36044 ft | 476 kts | 350° |
| 2026-05-04 22:54 | 43.86408 | -3.90507 | 36031 ft | 476 kts | 350° |
| 2026-05-04 22:55 | 43.92979 | -3.91671 | 36032 ft | 476 kts | 350° |
| 2026-05-04 22:55 | 43.99547 | -3.92838 | 36038 ft | 476 kts | 350° |
| 2026-05-04 22:56 | 44.06128 | -3.94008 | 36030 ft | 477 kts | 350° |
| 2026-05-04 22:56 | 44.12704 | -3.95181 | 36029 ft | 477 kts | 350° |
| 2026-05-04 22:57 | 44.19292 | -3.96359 | 36034 ft | 477 kts | 351° |
| 2026-05-04 22:57 | 44.25874 | -3.97538 | 36025 ft | 478 kts | 351° |
| 2026-05-04 22:58 | 44.32489 | -3.98656 | 36018 ft | 479 kts | 355° |
| 2026-05-04 22:58 | 44.39158 | -3.98144 | 36027 ft | 482 kts | 5° |
| 2026-05-04 22:59 | 44.45822 | -3.97093 | 36024 ft | 482 kts | 5° |
| 2026-05-04 22:59 | 44.52494 | -3.96066 | 36021 ft | 483 kts | 4° |
| 2026-05-04 23:00 | 44.59177 | -3.95098 | 36031 ft | 483 kts | 4° |
| 2026-05-04 23:00 | 44.65860 | -3.94155 | 36021 ft | 483 kts | 4° |
| 2026-05-04 23:01 | 44.72546 | -3.93212 | 36020 ft | 483 kts | 4° |
| 2026-05-04 23:01 | 44.79223 | -3.92265 | 36017 ft | 482 kts | 4° |
| 2026-05-04 23:02 | 44.85905 | -3.91313 | 36020 ft | 482 kts | 4° |
| 2026-05-04 23:02 | 44.92580 | -3.90360 | 36019 ft | 482 kts | 4° |
| 2026-05-04 23:03 | 44.99245 | -3.89407 | 36017 ft | 481 kts | 4° |
| 2026-05-04 23:03 | 45.05903 | -3.88451 | 36017 ft | 480 kts | 4° |
| 2026-05-04 23:04 | 45.12546 | -3.87497 | 36018 ft | 480 kts | 4° |
| 2026-05-04 23:04 | 45.19178 | -3.86541 | 36013 ft | 479 kts | 5° |
| 2026-05-04 23:05 | 45.25808 | -3.85583 | 36001 ft | 478 kts | 5° |
| 2026-05-04 23:05 | 45.32382 | -3.84632 | 36021 ft | 478 kts | 5° |
| 2026-05-04 23:06 | 45.39000 | -3.83672 | 36019 ft | 478 kts | 5° |
| 2026-05-04 23:06 | 45.45623 | -3.82708 | 36017 ft | 478 kts | 5° |
| 2026-05-04 23:07 | 45.52253 | -3.81742 | 36004 ft | 479 kts | 5° |
| 2026-05-04 23:07 | 45.58874 | -3.80774 | 36006 ft | 479 kts | 5° |
| 2026-05-04 23:08 | 45.65499 | -3.79803 | 36017 ft | 479 kts | 5° |
| 2026-05-04 23:08 | 45.72127 | -3.78830 | 36007 ft | 479 kts | 5° |
| 2026-05-04 23:09 | 45.78755 | -3.77855 | 36008 ft | 479 kts | 5° |
| 2026-05-04 23:09 | 45.85377 | -3.76877 | 36009 ft | 479 kts | 5° |
| 2026-05-04 23:10 | 45.91999 | -3.75898 | 36012 ft | 478 kts | 6° |
| 2026-05-04 23:10 | 45.98625 | -3.74916 | 35998 ft | 478 kts | 6° |
| 2026-05-04 23:11 | 46.05240 | -3.73932 | 36006 ft | 478 kts | 6° |
| 2026-05-04 23:11 | 46.11853 | -3.72947 | 35996 ft | 478 kts | 6° |
| 2026-05-04 23:12 | 46.18460 | -3.71960 | 36007 ft | 477 kts | 6° |
| 2026-05-04 23:12 | 46.25065 | -3.70972 | 36001 ft | 477 kts | 6° |
| 2026-05-04 23:13 | 46.31666 | -3.69987 | 36006 ft | 477 kts | 5° |
| 2026-05-04 23:13 | 46.38291 | -3.69868 | 36011 ft | 476 kts | 358° |
| 2026-05-04 23:14 | 46.44906 | -3.70256 | 36002 ft | 476 kts | 358° |
| 2026-05-04 23:14 | 46.51523 | -3.70633 | 36000 ft | 475 kts | 358° |
| 2026-05-04 23:15 | 46.58136 | -3.70934 | 35998 ft | 475 kts | 358° |
| 2026-05-04 23:15 | 46.64743 | -3.71199 | 36000 ft | 475 kts | 359° |
| 2026-05-04 23:16 | 46.71350 | -3.71457 | 35999 ft | 475 kts | 359° |
| 2026-05-04 23:16 | 46.77890 | -3.71716 | 35997 ft | 475 kts | 359° |
| 2026-05-04 23:17 | 46.84494 | -3.71980 | 35993 ft | 475 kts | 359° |
| 2026-05-04 23:17 | 46.91097 | -3.72245 | 35999 ft | 475 kts | 359° |
| 2026-05-04 23:18 | 46.97695 | -3.72512 | 35993 ft | 474 kts | 359° |
| 2026-05-04 23:18 | 47.04295 | -3.72778 | 35999 ft | 474 kts | 359° |
| 2026-05-04 23:19 | 47.10906 | -3.73046 | 35994 ft | 474 kts | 359° |
| 2026-05-04 23:19 | 47.17499 | -3.73314 | 35992 ft | 474 kts | 359° |
| 2026-05-04 23:20 | 47.24088 | -3.73582 | 35987 ft | 474 kts | 359° |
| 2026-05-04 23:20 | 47.30684 | -3.73851 | 35991 ft | 474 kts | 359° |
| 2026-05-04 23:21 | 47.37282 | -3.74121 | 35993 ft | 474 kts | 359° |
| 2026-05-04 23:21 | 47.43878 | -3.74392 | 35967 ft | 474 kts | 359° |
| 2026-05-04 23:22 | 47.50461 | -3.74662 | 35991 ft | 474 kts | 359° |
| 2026-05-04 23:22 | 47.57054 | -3.74934 | 35989 ft | 474 kts | 359° |
| 2026-05-04 23:23 | 47.63654 | -3.75207 | 35990 ft | 475 kts | 359° |
| 2026-05-04 23:23 | 47.70265 | -3.75480 | 35989 ft | 476 kts | 359° |
| 2026-05-04 23:24 | 47.76888 | -3.75756 | 35994 ft | 476 kts | 359° |
| 2026-05-04 23:24 | 47.82387 | -3.75985 | 35994 ft | 476 kts | 359° |
| 2026-05-04 23:25 | 47.89013 | -3.76261 | 35991 ft | 476 kts | 359° |
| 2026-05-04 23:25 | 47.95637 | -3.76538 | 35994 ft | 476 kts | 359° |
| 2026-05-04 23:26 | 48.02247 | -3.76815 | 35996 ft | 475 kts | 359° |
| 2026-05-04 23:26 | 48.08853 | -3.77093 | 35997 ft | 474 kts | 359° |
| 2026-05-04 23:27 | 48.15444 | -3.77371 | 36000 ft | 474 kts | 359° |
| 2026-05-04 23:27 | 48.22020 | -3.77649 | 36001 ft | 473 kts | 359° |
| 2026-05-04 23:28 | 48.28593 | -3.77928 | 36003 ft | 472 kts | 359° |
| 2026-05-04 23:28 | 48.35153 | -3.78206 | 36004 ft | 472 kts | 359° |
| 2026-05-04 23:29 | 48.41718 | -3.78486 | 36003 ft | 471 kts | 359° |
| 2026-05-04 23:29 | 48.48272 | -3.78766 | 36005 ft | 471 kts | 359° |
| 2026-05-04 23:30 | 48.54812 | -3.79046 | 36010 ft | 470 kts | 359° |
| 2026-05-04 23:30 | 48.61352 | -3.79326 | 36013 ft | 470 kts | 359° |
| 2026-05-04 23:31 | 48.67840 | -3.79606 | 36012 ft | 469 kts | 359° |
| 2026-05-04 23:31 | 48.74371 | -3.79887 | 36010 ft | 469 kts | 359° |
| 2026-05-04 23:32 | 48.80897 | -3.80170 | 36011 ft | 469 kts | 359° |
| 2026-05-04 23:32 | 48.87416 | -3.80453 | 36014 ft | 469 kts | 359° |
| 2026-05-04 23:33 | 48.93935 | -3.80736 | 36013 ft | 469 kts | 359° |
| 2026-05-04 23:33 | 49.00455 | -3.80876 | 36013 ft | 468 kts | 2° |
| 2026-05-04 23:34 | 49.06956 | -3.80476 | 36018 ft | 468 kts | 4° |
| 2026-05-04 23:34 | 49.13460 | -3.79984 | 36014 ft | 468 kts | 4° |
| 2026-05-04 23:35 | 49.19962 | -3.79548 | 36014 ft | 468 kts | 3° |
| 2026-05-04 23:35 | 49.26463 | -3.79148 | 36014 ft | 467 kts | 3° |
| 2026-05-04 23:36 | 49.32964 | -3.78754 | 36011 ft | 467 kts | 3° |
| 2026-05-04 23:36 | 49.39454 | -3.78358 | 36015 ft | 467 kts | 3° |
| 2026-05-04 23:37 | 49.45948 | -3.77958 | 36017 ft | 467 kts | 3° |
| 2026-05-04 23:37 | 49.52426 | -3.77559 | 36015 ft | 466 kts | 3° |
| 2026-05-04 23:38 | 49.58904 | -3.77158 | 36009 ft | 466 kts | 3° |
| 2026-05-04 23:38 | 49.65381 | -3.76756 | 36012 ft | 465 kts | 3° |
| 2026-05-04 23:39 | 49.71688 | -3.76333 | 35527 ft | 453 kts | 5° |
| 2026-05-04 23:39 | 49.74817 | -3.75996 | 34884 ft | 455 kts | 6° |
| 2026-05-04 23:39 | 49.77987 | -3.75598 | 34170 ft | 458 kts | 6° |
| 2026-05-04 23:40 | 49.81156 | -3.75185 | 33278 ft | 457 kts | 6° |
| 2026-05-04 23:40 | 49.84340 | -3.74776 | 31973 ft | 462 kts | 6° |
| 2026-05-04 23:40 | 49.87529 | -3.74375 | 30527 ft | 471 kts | 6° |
| 2026-05-04 23:40 | 49.90868 | -3.73965 | 29071 ft | 477 kts | 6° |
| 2026-05-04 23:41 | 49.94153 | -3.73571 | 28225 ft | 468 kts | 6° |
| 2026-05-04 23:41 | 49.97312 | -3.73198 | 27502 ft | 456 kts | 6° |
| 2026-05-04 23:41 | 50.00463 | -3.72825 | 26780 ft | 454 kts | 6° |
| 2026-05-04 23:41 | 50.03613 | -3.72450 | 26142 ft | 452 kts | 6° |
| 2026-05-04 23:42 | 50.06732 | -3.72077 | 25599 ft | 447 kts | 6° |
| 2026-05-04 23:42 | 50.09817 | -3.71708 | 25056 ft | 442 kts | 6° |
| 2026-05-04 23:42 | 50.12869 | -3.71341 | 24526 ft | 438 kts | 7° |
| 2026-05-04 23:42 | 50.15898 | -3.70977 | 23992 ft | 434 kts | 6° |
| 2026-05-04 23:43 | 50.18898 | -3.70616 | 23457 ft | 430 kts | 7° |
| 2026-05-04 23:43 | 50.21873 | -3.70256 | 22855 ft | 427 kts | 6° |
| 2026-05-04 23:43 | 50.24819 | -3.69900 | 22303 ft | 422 kts | 6° |
| 2026-05-04 23:43 | 50.27730 | -3.69548 | 21787 ft | 417 kts | 6° |
| 2026-05-04 23:44 | 50.30603 | -3.69201 | 21277 ft | 413 kts | 6° |
| 2026-05-04 23:44 | 50.33449 | -3.68855 | 20767 ft | 408 kts | 6° |
| 2026-05-04 23:44 | 50.36265 | -3.68513 | 20267 ft | 404 kts | 6° |
| 2026-05-04 23:44 | 50.39053 | -3.68175 | 19777 ft | 400 kts | 6° |
| 2026-05-04 23:45 | 50.41821 | -3.67836 | 19286 ft | 396 kts | 7° |
| 2026-05-04 23:45 | 50.44547 | -3.67378 | 18820 ft | 393 kts | 9° |
| 2026-05-04 23:45 | 50.47248 | -3.66847 | 18350 ft | 389 kts | 9° |
| 2026-05-04 23:45 | 50.49893 | -3.66086 | 17801 ft | 385 kts | 16° |
| 2026-05-04 23:46 | 50.52477 | -3.64995 | 17287 ft | 382 kts | 18° |
| 2026-05-04 23:46 | 50.55016 | -3.63847 | 16801 ft | 378 kts | 18° |
| 2026-05-04 23:46 | 50.57536 | -3.62696 | 16319 ft | 375 kts | 18° |
| 2026-05-04 23:46 | 50.60030 | -3.61566 | 15843 ft | 372 kts | 17° |
| 2026-05-04 23:47 | 50.62512 | -3.60455 | 15376 ft | 369 kts | 17° |
| 2026-05-04 23:47 | 50.64983 | -3.59359 | 14919 ft | 367 kts | 17° |
| 2026-05-04 23:47 | 50.67436 | -3.58278 | 14463 ft | 365 kts | 16° |
| 2026-05-04 23:47 | 50.69872 | -3.57208 | 14009 ft | 363 kts | 16° |
| 2026-05-04 23:48 | 50.72301 | -3.56143 | 13518 ft | 361 kts | 16° |
| 2026-05-04 23:48 | 50.74714 | -3.55084 | 13024 ft | 359 kts | 16° |
| 2026-05-04 23:48 | 50.77117 | -3.54030 | 12550 ft | 357 kts | 16° |
| 2026-05-04 23:48 | 50.79497 | -3.52985 | 12097 ft | 354 kts | 16° |
| 2026-05-04 23:49 | 50.81865 | -3.51943 | 11642 ft | 352 kts | 16° |
| 2026-05-04 23:49 | 50.84211 | -3.50910 | 11197 ft | 349 kts | 15° |
| 2026-05-04 23:49 | 50.86537 | -3.49885 | 10908 ft | 342 kts | 15° |
| 2026-05-04 23:49 | 50.88793 | -3.48890 | 10758 ft | 332 kts | 15° |
| 2026-05-04 23:50 | 50.90986 | -3.47922 | 10628 ft | 322 kts | 16° |
| 2026-05-04 23:50 | 50.93104 | -3.46985 | 10480 ft | 311 kts | 16° |
| 2026-05-04 23:50 | 50.95134 | -3.46087 | 10335 ft | 295 kts | 16° |
| 2026-05-04 23:50 | 50.97059 | -3.45235 | 10214 ft | 280 kts | 16° |
| 2026-05-04 23:51 | 50.98886 | -3.44425 | 10091 ft | 266 kts | 16° |
| 2026-05-04 23:51 | 51.00632 | -3.43650 | 9984 ft | 259 kts | 16° |
| 2026-05-04 23:51 | 51.02370 | -3.42879 | 9721 ft | 259 kts | 16° |
| 2026-05-04 23:51 | 51.04104 | -3.42108 | 9466 ft | 258 kts | 16° |
| 2026-05-04 23:52 | 51.05828 | -3.41341 | 9207 ft | 257 kts | 16° |
| 2026-05-04 23:52 | 51.07552 | -3.40574 | 8952 ft | 256 kts | 15° |
| 2026-05-04 23:52 | 51.09264 | -3.39811 | 8695 ft | 255 kts | 15° |
| 2026-05-04 23:52 | 51.10967 | -3.39053 | 8439 ft | 254 kts | 15° |
| 2026-05-04 23:53 | 51.12664 | -3.38296 | 8179 ft | 252 kts | 15° |
| 2026-05-04 23:53 | 51.14327 | -3.37554 | 7924 ft | 251 kts | 15° |
| 2026-05-04 23:53 | 51.16022 | -3.36797 | 7664 ft | 250 kts | 15° |
| 2026-05-04 23:53 | 51.17638 | -3.35904 | 7394 ft | 249 kts | 32° |
| 2026-05-04 23:54 | 51.18862 | -3.33979 | 7078 ft | 250 kts | 53° |
| 2026-05-04 23:54 | 51.19927 | -3.31720 | 6707 ft | 253 kts | 53° |
| 2026-05-04 23:54 | 51.20975 | -3.29482 | 6349 ft | 257 kts | 53° |
| 2026-05-04 23:54 | 51.22038 | -3.27215 | 5960 ft | 254 kts | 53° |
| 2026-05-04 23:55 | 51.23088 | -3.24978 | 5563 ft | 251 kts | 52° |
| 2026-05-04 23:55 | 51.24211 | -3.22880 | 5172 ft | 247 kts | 41° |
| 2026-05-04 23:55 | 51.26756 | -3.19469 | 4664 ft | 234 kts | 40° |
| 2026-05-04 23:56 | 51.27991 | -3.17808 | 4401 ft | 230 kts | 40° |
| 2026-05-04 23:56 | 51.29204 | -3.16174 | 4138 ft | 227 kts | 40° |
| 2026-05-04 23:56 | 51.30393 | -3.14574 | 4021 ft | 218 kts | 40° |
| 2026-05-04 23:56 | 51.31506 | -3.13077 | 4007 ft | 200 kts | 40° |
| 2026-05-04 23:57 | 51.32522 | -3.11710 | 3987 ft | 185 kts | 40° |
| 2026-05-04 23:57 | 51.33386 | -3.10193 | 3990 ft | 186 kts | 60° |
| 2026-05-04 23:57 | 51.34003 | -3.08351 | 3774 ft | 191 kts | 60° |
| 2026-05-04 23:57 | 51.34648 | -3.06510 | 3518 ft | 187 kts | 60° |
| 2026-05-04 23:58 | 51.35280 | -3.04726 | 3257 ft | 183 kts | 60° |
| 2026-05-04 23:58 | 51.35904 | -3.02972 | 3059 ft | 181 kts | 60° |
| 2026-05-04 23:58 | 51.36529 | -3.01224 | 3019 ft | 182 kts | 60° |
| 2026-05-04 23:58 | 51.37102 | -2.99426 | 2990 ft | 181 kts | 74° |
| 2026-05-04 23:59 | 51.37255 | -2.97453 | 3007 ft | 181 kts | 83° |
| 2026-05-04 23:59 | 51.37368 | -2.95440 | 3001 ft | 182 kts | 84° |
| 2026-05-04 23:59 | 51.37455 | -2.93419 | 2994 ft | 181 kts | 85° |
| 2026-05-04 23:59 | 51.37531 | -2.91392 | 2871 ft | 184 kts | 85° |
| 2026-05-05 00:00 | 51.37607 | -2.89338 | 2644 ft | 184 kts | 85° |
| 2026-05-05 00:00 | 51.37632 | -2.88648 | 2552 ft | 182 kts | 85° |
| 2026-05-05 00:00 | 51.37749 | -2.85491 | 2213 ft | 157 kts | 84° |
| 2026-05-05 00:00 | 51.37811 | -2.83829 | 2013 ft | 143 kts | 83° |
| 2026-05-05 00:01 | 51.37872 | -2.82233 | 1794 ft | 144 kts | 84° |
| 2026-05-05 00:01 | 51.37932 | -2.80644 | 1580 ft | 141 kts | 84° |
| 2026-05-05 00:01 | 51.37992 | -2.79076 | 1381 ft | 142 kts | 85° |
| 2026-05-05 00:01 | 51.38051 | -2.77515 | 1225 ft | 140 kts | 85° |
| 2026-05-05 00:02 | 51.38113 | -2.75941 | 988 ft | 143 kts | 85° |
| 2026-05-05 00:02 | 51.38173 | -2.74304 | 1045 ft | 156 kts | 85° |
| 2026-05-05 00:02 | 51.38250 | -2.72515 | 1782 ft | 168 kts | 84° |
| 2026-05-05 00:02 | 51.38334 | -2.70545 | 2600 ft | 185 kts | 85° |
| 2026-05-05 00:03 | 51.38093 | -2.68440 | 3364 ft | 208 kts | 119° |
| 2026-05-05 00:03 | 51.37000 | -2.66840 | 4061 ft | 210 kts | 144° |
| 2026-05-05 00:03 | 51.35748 | -2.65904 | 4967 ft | 195 kts | 171° |
| 2026-05-05 00:03 | 51.34362 | -2.66140 | 5147 ft | 220 kts | 204° |
| 2026-05-05 00:04 | 51.33134 | -2.67638 | 5068 ft | 226 kts | 227° |
| 2026-05-05 00:04 | 51.32094 | -2.69473 | 5012 ft | 220 kts | 229° |
| 2026-05-05 00:04 | 51.31094 | -2.71284 | 5008 ft | 215 kts | 230° |
| 2026-05-05 00:04 | 51.30105 | -2.73090 | 5025 ft | 217 kts | 230° |
| 2026-05-05 00:05 | 51.29113 | -2.74913 | 5019 ft | 218 kts | 230° |
| 2026-05-05 00:05 | 51.28101 | -2.76775 | 4806 ft | 226 kts | 230° |
| 2026-05-05 00:05 | 51.27070 | -2.78668 | 4543 ft | 224 kts | 230° |
| 2026-05-05 00:05 | 51.26078 | -2.80564 | 4232 ft | 224 kts | 239° |
| 2026-05-05 00:06 | 51.25739 | -2.82950 | 4053 ft | 225 kts | 284° |
| 2026-05-05 00:06 | 51.26514 | -2.85064 | 4047 ft | 226 kts | 324° |
| 2026-05-05 00:06 | 51.27962 | -2.85990 | 4042 ft | 227 kts | 351° |
| 2026-05-05 00:06 | 51.29530 | -2.85992 | 3989 ft | 226 kts | 17° |
| 2026-05-05 00:07 | 51.30856 | -2.84716 | 4011 ft | 225 kts | 43° |
| 2026-05-05 00:07 | 51.31937 | -2.82893 | 3997 ft | 226 kts | 47° |
| 2026-05-05 00:07 | 51.32970 | -2.81010 | 3997 ft | 224 kts | 48° |
| 2026-05-05 00:07 | 51.34001 | -2.79143 | 3997 ft | 225 kts | 47° |
| 2026-05-05 00:08 | 51.35018 | -2.77321 | 4005 ft | 225 kts | 47° |
| 2026-05-05 00:08 | 51.36049 | -2.75484 | 4002 ft | 226 kts | 47° |
| 2026-05-05 00:08 | 51.37097 | -2.73623 | 3993 ft | 223 kts | 47° |
| 2026-05-05 00:08 | 51.38130 | -2.71789 | 3994 ft | 222 kts | 46° |
| 2026-05-05 00:09 | 51.39397 | -2.70421 | 3993 ft | 224 kts | 14° |
| 2026-05-05 00:09 | 51.40951 | -2.70406 | 4012 ft | 228 kts | 348° |
| 2026-05-05 00:09 | 51.42441 | -2.71301 | 3983 ft | 231 kts | 326° |
| 2026-05-05 00:09 | 51.43461 | -2.73245 | 4006 ft | 232 kts | 295° |
| 2026-05-05 00:10 | 51.43790 | -2.75787 | 4014 ft | 238 kts | 273° |
| 2026-05-05 00:10 | 51.43798 | -2.78439 | 3997 ft | 236 kts | 271° |
| 2026-05-05 00:10 | 51.43791 | -2.81035 | 3988 ft | 232 kts | 271° |
| 2026-05-05 00:10 | 51.43553 | -2.83567 | 3972 ft | 231 kts | 245° |
| 2026-05-05 00:11 | 51.42485 | -2.85513 | 4007 ft | 240 kts | 211° |
| 2026-05-05 00:11 | 51.40893 | -2.86243 | 3993 ft | 240 kts | 176° |
| 2026-05-05 00:11 | 51.39343 | -2.85443 | 3988 ft | 235 kts | 141° |
| 2026-05-05 00:11 | 51.38606 | -2.84213 | 3999 ft | 231 kts | 118° |
| 2026-05-05 00:12 | 51.38132 | -2.81810 | 4009 ft | 226 kts | 93° |
| 2026-05-05 00:12 | 51.38095 | -2.78493 | 4016 ft | 227 kts | 88° |
| 2026-05-05 00:12 | 51.38107 | -2.76772 | 4007 ft | 231 kts | 88° |
| 2026-05-05 00:12 | 51.38120 | -2.74214 | 4001 ft | 233 kts | 88° |
| 2026-05-05 00:13 | 51.38129 | -2.71653 | 3988 ft | 226 kts | 85° |
| 2026-05-05 00:13 | 51.38562 | -2.69312 | 4003 ft | 223 kts | 54° |
| 2026-05-05 00:13 | 51.39703 | -2.67632 | 3993 ft | 225 kts | 26° |
| 2026-05-05 00:13 | 51.41211 | -2.67041 | 4009 ft | 227 kts | 358° |
| 2026-05-05 00:14 | 51.42714 | -2.67723 | 3996 ft | 227 kts | 328° |
| 2026-05-05 00:14 | 51.43773 | -2.69525 | 3993 ft | 223 kts | 298° |
| 2026-05-05 00:14 | 51.44193 | -2.71964 | 4003 ft | 234 kts | 274° |
| 2026-05-05 00:14 | 51.44207 | -2.74602 | 4003 ft | 237 kts | 272° |
| 2026-05-05 00:15 | 51.44204 | -2.77235 | 4002 ft | 236 kts | 272° |
| 2026-05-05 00:15 | 51.44348 | -2.79840 | 4001 ft | 233 kts | 279° |
| 2026-05-05 00:15 | 51.44570 | -2.82413 | 3994 ft | 232 kts | 279° |
| 2026-05-05 00:15 | 51.44797 | -2.84973 | 3993 ft | 232 kts | 279° |
| 2026-05-05 00:16 | 51.45028 | -2.87531 | 3989 ft | 232 kts | 280° |
| 2026-05-05 00:16 | 51.45263 | -2.90089 | 3989 ft | 232 kts | 280° |
| 2026-05-05 00:16 | 51.45499 | -2.92646 | 3996 ft | 231 kts | 280° |
| 2026-05-05 00:16 | 51.45690 | -2.95232 | 3830 ft | 240 kts | 269° |
| 2026-05-05 00:17 | 51.45219 | -2.97805 | 3571 ft | 244 kts | 238° |
| 2026-05-05 00:17 | 51.44202 | -2.99963 | 3341 ft | 242 kts | 231° |
| 2026-05-05 00:17 | 51.43130 | -3.02032 | 3090 ft | 240 kts | 230° |
| 2026-05-05 00:17 | 51.42068 | -3.04065 | 3016 ft | 237 kts | 230° |
| 2026-05-05 00:18 | 51.41011 | -3.06080 | 3005 ft | 236 kts | 230° |
| 2026-05-05 00:18 | 51.39959 | -3.08077 | 2997 ft | 235 kts | 228° |
| 2026-05-05 00:18 | 51.38679 | -3.09590 | 2993 ft | 233 kts | 198° |
| 2026-05-05 00:18 | 51.37098 | -3.09652 | 2989 ft | 229 kts | 157° |
| 2026-05-05 00:19 | 51.35932 | -3.08149 | 2982 ft | 210 kts | 115° |
| 2026-05-05 00:19 | 51.35749 | -3.06024 | 2982 ft | 187 kts | 70° |
| 2026-05-05 00:19 | 51.36327 | -3.04208 | 3008 ft | 183 kts | 65° |
| 2026-05-05 00:19 | 51.36713 | -3.02290 | 3006 ft | 180 kts | 75° |
| 2026-05-05 00:20 | 51.36968 | -3.00351 | 2991 ft | 173 kts | 78° |
| 2026-05-05 00:20 | 51.37175 | -2.98520 | 2976 ft | 164 kts | 80° |
| 2026-05-05 00:20 | 51.37310 | -2.96723 | 2986 ft | 162 kts | 83° |
| 2026-05-05 00:20 | 51.37395 | -2.94933 | 2988 ft | 161 kts | 85° |
| 2026-05-05 00:21 | 51.37465 | -2.93148 | 3001 ft | 161 kts | 85° |
| 2026-05-05 00:21 | 51.37532 | -2.91351 | 2902 ft | 160 kts | 85° |
| 2026-05-05 00:21 | 51.37595 | -2.89633 | 2697 ft | 149 kts | 85° |
| 2026-05-05 00:21 | 51.37654 | -2.88031 | 2490 ft | 141 kts | 85° |
| 2026-05-05 00:22 | 51.37712 | -2.86478 | 2309 ft | 141 kts | 84° |
| 2026-05-05 00:22 | 51.37772 | -2.84904 | 2115 ft | 142 kts | 84° |
| 2026-05-05 00:22 | 51.37830 | -2.83350 | 1900 ft | 138 kts | 83° |
| 2026-05-05 00:22 | 51.37892 | -2.81811 | 1660 ft | 140 kts | 84° |
| 2026-05-05 00:23 | 51.37935 | -2.80203 | 1494 ft | 147 kts | 84° |
| 2026-05-05 00:23 | 51.38006 | -2.78558 | 1320 ft | 149 kts | 84° |
| 2026-05-05 00:23 | 51.38063 | -2.76906 | 1127 ft | 147 kts | 85° |
| 2026-05-05 00:23 | 51.38136 | -2.75294 | 880 ft | 142 kts | 85° |
| 2026-05-05 00:24 | 51.38194 | -2.73729 | 693 ft | 137 kts | 85° |
| 2026-05-05 00:24 | 51.38252 | -2.72309 | 625 ft | 110 kts | 87° |
| 2026-05-05 00:24 | 51.38286 | -2.71429 | 602 ft | 50 kts | 86° |
| 2026-05-05 00:24 | 51.38295 | -2.71204 | 603 ft | 0 kts | 86° |